Time;durP1;ratioP1;P1;durP2;ratioP2;P2;SDS_P1;SDS_P2;PMS_P1;PMS_P2;Temp;Humidity;BMP_temperature;BMP_pressure;BME280_temperature;BME280_humidity;BME280_pressure;Samples;Min_cycle;Max_cycle;Signal;HPM_P1;HPM_P2
2022/11/21 00:00:43;;;;;;;5.68;4.45;;;;;;;18.07;43.77;100512.16;5023771;28;20042;-64
2022/11/21 00:03:09;;;;;;;5.47;4.38;;;;;;;18.04;43.51;100517.88;5025133;28;20026;-61
2022/11/21 00:05:38;;;;;;;5.00;4.45;;;;;;;17.97;43.52;100505.13;5031048;28;20029;-64
2022/11/21 00:08:03;;;;;;;5.13;4.22;;;;;;;18.09;43.69;100518.19;5028192;28;20521;-64
2022/11/21 00:10:28;;;;;;;6.18;4.32;;;;;;;18.08;43.43;100511.13;5025290;28;20530;-64
2022/11/21 00:12:55;;;;;;;4.97;4.10;;;;;;;18.08;43.63;100516.50;5028081;28;20061;-64
2022/11/21 00:15:21;;;;;;;5.70;4.35;;;;;;;18.07;43.51;100521.06;5025140;28;20106;-64
2022/11/21 00:17:46;;;;;;;5.57;3.63;;;;;;;18.07;43.23;100520.22;5024993;28;20025;-64
2022/11/21 00:20:11;;;;;;;5.50;4.60;;;;;;;18.06;43.50;100513.16;5024691;28;20040;-64
2022/11/21 00:22:36;;;;;;;5.47;4.30;;;;;;;18.05;43.70;100514.16;5024741;28;20052;-64
2022/11/21 00:25:02;;;;;;;5.97;3.83;;;;;;;18.08;43.46;100527.28;5024725;28;20045;-63
2022/11/21 00:27:27;;;;;;;5.25;4.00;;;;;;;18.07;43.17;100528.28;5025808;28;20026;-63
2022/11/21 00:29:52;;;;;;;5.78;3.90;;;;;;;18.07;43.47;100525.59;5025121;28;20030;-63
2022/11/21 00:32:18;;;;;;;4.38;3.70;;;;;;;18.05;43.72;100524.91;5024617;28;20030;-63
2022/11/21 00:34:43;;;;;;;5.13;3.70;;;;;;;18.06;43.56;100515.84;5024703;28;20022;-64
2022/11/21 00:37:08;;;;;;;4.80;4.05;;;;;;;18.03;43.67;100508.97;5024731;28;20026;-63
2022/11/21 00:39:33;;;;;;;4.63;4.13;;;;;;;18.06;43.48;100513.16;5024523;28;20467;-63
2022/11/21 00:41:59;;;;;;;5.07;4.05;;;;;;;18.05;43.41;100517.69;5024729;28;20044;-63
2022/11/21 00:44:24;;;;;;;5.60;4.00;;;;;;;18.06;43.58;100518.56;5024638;28;20069;-63
2022/11/21 00:46:49;;;;;;;5.65;4.65;;;;;;;18.05;43.43;100514.16;5024496;28;20040;-63
2022/11/21 00:49:14;;;;;;;4.72;3.83;;;;;;;17.96;43.48;100510.66;5023806;28;20033;-63
2022/11/21 00:51:39;;;;;;;5.20;4.20;;;;;;;18.06;43.79;100527.47;5024697;28;20056;-63
2022/11/21 00:54:05;;;;;;;4.63;3.50;;;;;;;18.04;43.30;100525.94;5024453;28;20022;-63
2022/11/21 00:56:30;;;;;;;5.47;4.28;;;;;;;18.04;43.44;100529.47;5024901;28;20045;-63
2022/11/21 00:58:55;;;;;;;4.55;3.50;;;;;;;18.04;43.45;100532.16;5023794;28;20451;-63
2022/11/21 01:01:20;;;;;;;4.45;3.53;;;;;;;18.06;43.44;100540.06;5024827;28;20095;-63
2022/11/21 01:03:46;;;;;;;5.00;3.55;;;;;;;18.06;43.38;100537.38;5023835;28;20026;-65
2022/11/21 01:06:12;;;;;;;5.95;3.88;;;;;;;17.96;43.52;100519.56;5024544;28;20028;-63
2022/11/21 01:08:40;;;;;;;6.03;4.13;;;;;;;17.94;43.53;100518.91;5006277;28;20081;-63
2022/11/21 01:11:11;;;;;;;5.53;4.10;;;;;;;18.04;43.56;100526.78;5006847;28;20026;-63
2022/11/21 01:13:37;;;;;;;4.47;3.75;;;;;;;18.02;43.51;100507.28;5024767;28;20091;-63
2022/11/21 01:16:07;;;;;;;5.38;3.90;;;;;;;18.04;43.42;100504.41;5023672;28;20451;-63
2022/11/21 01:18:33;;;;;;;4.38;3.97;;;;;;;18.04;43.52;100512.50;5023659;28;20030;-62
2022/11/21 01:21:01;;;;;;;4.40;3.63;;;;;;;18.03;43.54;100525.09;5024059;28;20029;-62
2022/11/21 01:23:26;;;;;;;4.82;3.80;;;;;;;18.04;43.32;100539.38;5023770;28;20080;-62
2022/11/21 01:25:52;;;;;;;4.65;3.83;;;;;;;18.06;43.42;100540.91;5022846;28;20060;-62
2022/11/21 01:28:17;;;;;;;4.40;3.83;;;;;;;18.05;43.17;100533.00;5006377;28;20161;-63
2022/11/21 01:30:42;;;;;;;4.00;3.40;;;;;;;18.03;43.36;100530.47;5023787;28;20033;-63
2022/11/21 01:33:07;;;;;;;3.92;3.45;;;;;;;18.04;43.63;100537.53;5023752;28;20037;-62
2022/11/21 01:35:33;;;;;;;4.50;3.65;;;;;;;18.04;43.31;100534.00;5023760;28;20033;-65
2022/11/21 01:37:58;;;;;;;5.40;3.40;;;;;;;18.04;43.51;100536.69;5023961;28;20022;-62
2022/11/21 01:40:23;;;;;;;4.30;3.83;;;;;;;18.04;43.58;100547.47;5023162;28;20495;-65
2022/11/21 01:42:52;;;;;;;4.00;3.45;;;;;;;18.03;43.54;100549.31;5023784;28;20423;-63
2022/11/21 01:45:52;;;;;;;4.28;3.60;;;;;;;18.03;43.59;100549.31;5023175;28;20146;-63
2022/11/21 01:48:18;;;;;;;4.15;3.70;;;;;;;17.98;43.52;100547.13;5023646;28;20022;-63
2022/11/21 01:50:44;;;;;;;4.30;3.90;;;;;;;17.92;43.35;100534.34;5005853;28;20036;-63
2022/11/21 01:53:09;;;;;;;4.35;3.55;;;;;;;18.03;43.52;100548.47;5005651;28;20089;-63
2022/11/21 01:55:35;;;;;;;4.63;4.18;;;;;;;18.02;43.42;100539.56;5005929;28;20041;-63
2022/11/21 01:58:00;;;;;;;4.45;3.95;;;;;;;17.98;43.54;100525.63;5022562;28;20034;-63
2022/11/21 02:00:28;;;;;;;5.75;4.20;;;;;;;18.03;43.30;100525.09;5023213;28;20026;-63
2022/11/21 02:03:02;;;;;;;4.05;3.30;;;;;;;18.03;43.27;100521.56;5005915;28;20026;-63
2022/11/21 02:05:30;;;;;;;4.95;3.50;;;;;;;18.03;43.49;100510.81;5005498;28;20041;-63
2022/11/21 02:07:58;;;;;;;4.60;3.45;;;;;;;17.97;43.54;100504.28;5005542;28;20025;-63
2022/11/21 02:10:24;;;;;;;3.95;3.30;;;;;;;18.03;43.25;100511.66;5005378;28;20028;-63
2022/11/21 02:12:53;;;;;;;4.53;3.65;;;;;;;18.03;43.31;100505.44;5023044;28;20030;-63
2022/11/21 02:15:22;;;;;;;4.40;3.50;;;;;;;17.89;43.36;100480.94;5005227;28;20510;-63
2022/11/21 02:17:47;;;;;;;4.68;3.40;;;;;;;18.03;43.17;100505.44;5022886;28;20026;-64
2022/11/21 02:20:18;;;;;;;4.40;3.47;;;;;;;18.03;43.44;100518.88;5022968;28;20032;-63
2022/11/21 02:23:01;;;;;;;3.88;3.40;;;;;;;18.02;43.52;100522.59;5022685;28;20457;-63
2022/11/21 02:25:28;;;;;;;3.67;3.03;;;;;;;18.02;43.32;100527.97;5021293;28;20085;-63
2022/11/21 02:28:00;;;;;;;4.50;4.00;;;;;;;18.02;43.26;100522.59;5004582;28;20037;-63
2022/11/21 02:30:27;;;;;;;3.42;3.08;;;;;;;17.95;43.24;100517.06;5004758;28;20463;-63
2022/11/21 02:32:53;;;;;;;3.85;3.45;;;;;;;18.02;43.17;100530.66;5005324;28;20537;-63
2022/11/21 02:35:18;;;;;;;4.03;3.53;;;;;;;18.01;43.33;100524.44;5022139;28;20049;-63
2022/11/21 02:37:46;;;;;;;4.32;3.50;;;;;;;18.01;43.31;100529.84;5022982;28;20080;-65
2022/11/21 02:40:14;;;;;;;4.50;3.65;;;;;;;18.02;43.53;100520.75;5022610;28;20470;-63
2022/11/21 02:42:49;;;;;;;3.97;3.33;;;;;;;18.02;43.56;100514.53;5021735;28;20109;-63
2022/11/21 02:45:19;;;;;;;4.38;3.47;;;;;;;18.01;43.24;100508.31;5021324;28;20033;-63
2022/11/21 02:47:45;;;;;;;4.32;3.47;;;;;;;18.01;43.33;100508.31;5004657;28;20433;-64
2022/11/21 02:50:19;;;;;;;4.28;3.33;;;;;;;18.01;43.21;100505.63;5005414;28;20048;-63
2022/11/21 02:52:44;;;;;;;4.15;3.47;;;;;;;18.01;43.43;100513.69;5022548;28;20030;-63
2022/11/21 02:55:10;;;;;;;3.25;2.92;;;;;;;18.01;43.53;100521.75;5022218;28;20410;-63
2022/11/21 02:57:37;;;;;;;3.97;3.58;;;;;;;18.01;43.21;100518.19;5022253;28;20367;-63
2022/11/21 03:00:03;;;;;;;4.22;3.58;;;;;;;17.99;43.52;100511.16;5022771;28;20037;-65
2022/11/21 03:02:28;;;;;;;3.83;3.38;;;;;;;18.02;43.29;100501.91;5022235;28;20041;-63
2022/11/21 03:04:53;;;;;;;4.55;4.05;;;;;;;18.02;43.34;100507.28;5022631;28;20089;-64
2022/11/21 03:07:18;;;;;;;3.95;3.33;;;;;;;18.01;43.40;100511.00;5022440;28;20037;-63
2022/11/21 03:09:43;;;;;;;3.53;2.90;;;;;;;18.02;43.34;100517.22;5021968;28;20530;-64
2022/11/21 03:12:09;;;;;;;4.18;3.78;;;;;;;18.01;43.17;100520.91;5022601;28;20034;-64
2022/11/21 03:14:35;;;;;;;4.05;3.17;;;;;;;18.02;43.44;100517.22;5022274;28;20026;-63
2022/11/21 03:17:01;;;;;;;4.38;3.80;;;;;;;18.02;43.17;100514.53;5022235;28;20038;-64
2022/11/21 03:19:26;;;;;;;3.50;3.00;;;;;;;18.02;43.10;100514.53;5022015;28;20053;-64
2022/11/21 03:21:51;;;;;;;4.45;3.60;;;;;;;18.01;43.47;100508.31;5022089;28;20029;-63
2022/11/21 03:24:16;;;;;;;3.97;3.30;;;;;;;18.01;43.18;100497.56;5021370;28;20042;-64
2022/11/21 03:26:42;;;;;;;3.45;3.08;;;;;;;18.03;43.13;100489.28;5021736;28;20092;-63
2022/11/21 03:29:07;;;;;;;4.35;3.42;;;;;;;18.02;43.45;100490.31;5022442;28;20014;-64
2022/11/21 03:31:32;;;;;;;3.67;3.28;;;;;;;17.95;43.36;100469.47;5021860;28;20121;-61
2022/11/21 03:33:57;;;;;;;3.92;3.25;;;;;;;18.02;43.40;100488.47;5022154;28;20026;-64
2022/11/21 03:36:23;;;;;;;4.03;3.45;;;;;;;17.72;43.36;100439.78;5022185;28;20036;-63
2022/11/21 03:38:48;;;;;;;4.75;3.70;;;;;;;17.62;43.33;100430.19;5022281;28;20053;-64
2022/11/21 03:41:28;;;;;;;4.40;3.67;;;;;;;17.90;43.30;100479.09;5021973;28;20034;-64
2022/11/21 03:44:04;;;;;;;3.95;3.55;;;;;;;18.01;43.38;100481.41;5024816;28;20036;-64
2022/11/21 03:46:32;;;;;;;4.65;4.00;;;;;;;18.00;43.13;100474.31;5025542;28;20093;-63
2022/11/21 03:48:57;;;;;;;3.92;3.53;;;;;;;18.00;43.27;100474.31;5025556;28;20505;-64
2022/11/21 03:51:23;;;;;;;3.33;2.97;;;;;;;18.00;43.30;100485.09;5025849;28;20057;-64
2022/11/21 03:53:49;;;;;;;4.45;3.55;;;;;;;18.01;43.40;100488.63;5024743;28;20037;-64
2022/11/21 03:56:14;;;;;;;3.38;3.08;;;;;;;18.00;43.15;100495.84;5025726;28;20053;-63
2022/11/21 03:58:40;;;;;;;4.47;3.33;;;;;;;18.01;43.30;100492.16;5025582;28;20030;-63
2022/11/21 04:01:05;;;;;;;3.50;3.20;;;;;;;17.91;43.19;100478.91;5008473;28;20029;-64
2022/11/21 04:03:31;;;;;;;3.78;3.33;;;;;;;18.01;43.23;100491.31;5025294;28;20443;-64
2022/11/21 04:05:56;;;;;;;3.80;3.40;;;;;;;17.98;43.28;100473.69;5025602;28;20036;-64
2022/11/21 04:08:21;;;;;;;3.53;3.22;;;;;;;18.01;43.11;100477.84;5025435;28;20022;-64
2022/11/21 04:10:48;;;;;;;3.33;3.03;;;;;;;17.88;43.20;100455.06;5025303;28;20026;-64
2022/11/21 04:13:13;;;;;;;3.78;3.08;;;;;;;17.98;43.33;100466.44;5025375;28;20029;-64
2022/11/21 04:15:42;;;;;;;3.88;3.47;;;;;;;18.01;43.06;100459.03;5024989;28;20037;-64
2022/11/21 04:18:08;;;;;;;3.70;3.35;;;;;;;18.01;43.08;100472.47;5024852;28;20034;-64
2022/11/21 04:20:34;;;;;;;4.18;3.22;;;;;;;18.01;43.24;100477.84;5024813;28;20042;-64
2022/11/21 04:22:59;;;;;;;3.63;3.28;;;;;;;17.94;43.27;100469.66;5024802;28;20041;-64
2022/11/21 04:25:24;;;;;;;3.83;3.17;;;;;;;17.99;43.32;100478.88;5025234;28;20057;-64
2022/11/21 04:27:49;;;;;;;3.88;3.45;;;;;;;18.00;43.12;100487.78;5025425;28;20040;-64
2022/11/21 04:30:15;;;;;;;3.80;3.40;;;;;;;18.00;43.31;100490.47;5025436;28;20026;-64
2022/11/21 04:32:40;;;;;;;3.20;2.90;;;;;;;18.01;43.13;100476.03;5025146;28;20030;-64
2022/11/21 04:35:06;;;;;;;3.67;3.30;;;;;;;17.97;43.22;100475.53;5025026;28;20057;-64
2022/11/21 04:37:31;;;;;;;3.58;3.15;;;;;;;17.93;43.22;100465.28;5024577;28;20033;-63
2022/11/21 04:39:57;;;;;;;3.65;3.13;;;;;;;17.99;42.96;100472.66;5024513;28;20049;-63
2022/11/21 04:42:22;;;;;;;4.00;3.38;;;;;;;17.99;43.44;100461.91;5024601;28;20081;-64
2022/11/21 04:44:48;;;;;;;3.70;3.13;;;;;;;17.99;43.15;100459.22;5007505;28;20026;-64
2022/11/21 04:47:13;;;;;;;3.58;2.97;;;;;;;18.00;43.37;100460.88;5024525;28;20052;-64
2022/11/21 04:49:38;;;;;;;3.55;3.25;;;;;;;17.98;43.20;100454.84;5024875;28;20110;-64
2022/11/21 04:52:03;;;;;;;3.35;3.05;;;;;;;17.98;43.15;100461.06;5024073;28;20033;-66
2022/11/21 04:54:29;;;;;;;3.95;3.47;;;;;;;17.99;43.33;100453.84;5023849;28;20064;-64
2022/11/21 04:56:54;;;;;;;3.53;3.22;;;;;;;18.01;42.98;100456.34;5024687;28;20029;-64
2022/11/21 04:59:19;;;;;;;3.97;3.08;;;;;;;18.00;43.38;100450.13;5024446;28;20025;-64
2022/11/21 05:01:44;;;;;;;3.30;2.97;;;;;;;17.99;42.93;100446.59;5024509;28;20105;-63
2022/11/21 05:04:10;;;;;;;3.53;3.00;;;;;;;17.97;43.10;100435.19;5024420;28;20026;-65
2022/11/21 05:06:35;;;;;;;3.47;3.17;;;;;;;17.82;43.28;100407.31;5023957;28;20017;-64
2022/11/21 05:09:00;;;;;;;3.97;3.58;;;;;;;18.02;43.25;100447.28;5023768;28;20095;-63
2022/11/21 05:14:10;;;;;;;3.47;3.13;;;;;;;18.04;43.17;100450.63;5022208;28;20029;-63
2022/11/21 05:16:35;;;;;;;3.50;2.92;;;;;;;18.05;43.27;100450.44;5023130;28;20034;-63
2022/11/21 05:19:00;;;;;;;3.65;3.30;;;;;;;18.05;43.52;100446.91;5005569;28;20032;-63
2022/11/21 05:21:26;;;;;;;3.90;3.20;;;;;;;17.95;43.21;100425.59;5023270;28;20648;-63
2022/11/21 05:23:51;;;;;;;3.05;2.75;;;;;;;18.07;43.37;100444.91;5023769;28;20133;-63
2022/11/21 05:26:16;;;;;;;3.30;2.83;;;;;;;18.04;43.35;100451.44;5023915;28;20022;-63
2022/11/21 05:28:41;;;;;;;4.03;3.63;;;;;;;18.08;43.14;100463.53;5024156;28;20030;-62
2022/11/21 05:31:07;;;;;;;3.95;3.10;;;;;;;18.09;43.33;100456.31;5024254;28;20379;-62
2022/11/21 05:33:32;;;;;;;4.22;3.58;;;;;;;18.10;43.47;100449.94;5006216;28;20033;-62
2022/11/21 05:35:57;;;;;;;3.65;2.92;;;;;;;18.09;43.45;100440.16;5023679;28;20029;-63
2022/11/21 05:38:22;;;;;;;4.20;3.10;;;;;;;18.12;43.64;100439.81;5023258;28;20843;-63
2022/11/21 05:40:48;;;;;;;3.70;3.30;;;;;;;18.11;43.50;100441.69;5023080;28;20022;-63
2022/11/21 05:45:57;;;;;;;3.45;3.15;;;;;;;18.13;43.63;100430.72;5021779;28;20029;-63
2022/11/21 05:48:22;;;;;;;3.80;3.03;;;;;;;18.14;43.95;100422.50;5022638;28;20030;-63
2022/11/21 05:50:48;;;;;;;3.40;3.10;;;;;;;18.14;43.66;100424.38;5020137;28;20022;-63
2022/11/21 05:53:14;;;;;;;3.88;3.10;;;;;;;18.14;43.97;100427.88;5022836;28;20036;-63
2022/11/21 05:55:39;;;;;;;2.95;2.65;;;;;;;18.16;43.81;100427.69;5022997;28;20030;-63
2022/11/21 05:58:05;;;;;;;3.08;2.78;;;;;;;18.16;43.72;100425.84;5023196;28;20026;-63
2022/11/21 06:00:30;;;;;;;3.08;2.78;;;;;;;18.16;43.89;100430.38;5023230;28;20036;-63
2022/11/21 06:05:39;;;;;;;3.60;3.13;;;;;;;18.16;43.83;100423.16;5020784;28;20125;-62
2022/11/21 06:08:04;;;;;;;3.53;3.22;;;;;;;18.17;43.61;100432.91;5018856;28;20466;-62
2022/11/21 06:10:30;;;;;;;3.03;2.75;;;;;;;18.17;43.92;100432.91;5013522;28;20034;-62
2022/11/21 06:12:58;;;;;;;3.60;3.17;;;;;;;18.17;43.81;100438.28;5025553;28;20038;-63
2022/11/21 06:15:24;;;;;;;3.65;3.10;;;;;;;18.15;44.03;100434.94;5013827;28;20196;-63
2022/11/21 06:17:49;;;;;;;3.80;2.80;;;;;;;18.20;43.86;100437.09;5015982;28;20045;-62
2022/11/21 06:20:14;;;;;;;3.42;3.13;;;;;;;18.20;43.78;100437.94;5012215;28;20027;-63
2022/11/21 06:22:39;;;;;;;3.90;2.65;;;;;;;18.20;43.85;100431.72;5012871;28;20050;-63
2022/11/21 06:25:05;;;;;;;3.33;2.75;;;;;;;18.21;44.07;100425.31;5014735;28;20066;-62
2022/11/21 06:27:30;;;;;;;3.38;2.88;;;;;;;18.18;43.89;100420.28;5011979;28;20070;-60
2022/11/21 06:29:55;;;;;;;3.42;3.03;;;;;;;18.20;43.87;100421.78;5013356;28;20064;-63
2022/11/21 06:32:20;;;;;;;3.08;2.70;;;;;;;18.16;43.68;100409.69;5012998;28;20026;-63
2022/11/21 06:34:46;;;;;;;3.63;3.03;;;;;;;18.20;43.96;100407.50;5011876;28;20030;-62
2022/11/21 06:37:11;;;;;;;4.07;3.38;;;;;;;18.24;43.94;100411.53;5011223;28;20029;-63
2022/11/21 06:39:36;;;;;;;3.22;2.92;;;;;;;18.21;44.19;100401.94;5006574;28;20097;-63
2022/11/21 06:42:01;;;;;;;3.13;2.80;;;;;;;17.99;43.87;100359.69;5016960;28;20037;-62
2022/11/21 06:44:27;;;;;;;4.00;3.47;;;;;;;18.26;44.03;100398.72;5022314;28;20040;-63
2022/11/21 06:46:52;;;;;;;3.60;3.22;;;;;;;18.23;43.83;100394.53;5017730;28;20096;-63
2022/11/21 06:49:17;;;;;;;3.88;2.80;;;;;;;18.21;43.94;100387.66;5012508;28;20022;-65
2022/11/21 06:51:42;;;;;;;3.08;2.78;;;;;;;18.26;44.04;100398.72;5011615;28;20038;-63
2022/11/21 06:54:08;;;;;;;2.95;2.65;;;;;;;18.22;44.07;100392.00;5012807;28;20045;-63
2022/11/21 06:56:33;;;;;;;3.38;2.80;;;;;;;18.22;44.06;100387.50;5012929;28;20044;-63
2022/11/21 06:58:58;;;;;;;4.30;3.03;;;;;;;18.26;44.17;100393.31;5008823;28;20065;-63
2022/11/21 07:01:24;;;;;;;3.72;3.22;;;;;;;18.26;44.22;100389.81;5013443;28;20056;-63
2022/11/21 07:03:49;;;;;;;4.03;3.05;;;;;;;18.26;44.05;100398.72;5013279;28;20086;-63
2022/11/21 07:06:14;;;;;;;3.35;2.90;;;;;;;18.26;43.91;100404.09;5010312;28;20048;-62
2022/11/21 07:08:40;;;;;;;4.22;2.92;;;;;;;18.26;44.21;100406.78;5012900;28;20042;-63
2022/11/21 07:11:07;;;;;;;3.08;2.78;;;;;;;18.24;43.99;100403.44;5012812;28;20014;-62
2022/11/21 07:13:32;;;;;;;3.47;2.90;;;;;;;18.23;43.90;100401.78;5012530;28;20093;-62
2022/11/21 07:16:03;;;;;;;3.65;2.92;;;;;;;18.26;44.15;100404.09;5011656;28;20033;-63
2022/11/21 07:18:28;;;;;;;4.88;3.13;;;;;;;18.27;43.87;100404.97;5016534;28;20049;-62
2022/11/21 07:21:02;;;;;;;5.00;2.90;;;;;;;18.24;44.08;100415.03;5003934;28;20034;-63
2022/11/21 07:23:28;;;;;;;4.80;2.97;;;;;;;18.29;44.04;100416.38;5014147;28;20045;-63
2022/11/21 07:25:53;;;;;;;4.15;2.97;;;;;;;18.27;44.07;100411.16;5015803;28;20037;-63
2022/11/21 07:28:19;;;;;;;3.42;2.95;;;;;;;18.29;43.99;100411.81;5016478;28;20109;-63
2022/11/21 07:30:44;;;;;;;3.63;3.00;;;;;;;18.30;43.99;100410.78;5020716;28;20033;-63
2022/11/21 07:33:09;;;;;;;4.40;3.22;;;;;;;18.30;43.81;100415.34;5026331;28;20090;-62
2022/11/21 07:35:35;;;;;;;4.97;3.28;;;;;;;18.28;43.87;100410.16;5026221;28;20030;-62
2022/11/21 07:38:01;;;;;;;5.15;3.40;;;;;;;18.29;43.67;100401.06;5021773;28;20041;-54
2022/11/21 07:40:26;;;;;;;3.60;3.00;;;;;;;18.31;43.58;100398.19;5019685;28;20098;-56
2022/11/21 07:42:52;;;;;;;3.80;2.92;;;;;;;18.31;43.66;100398.19;5015258;28;20030;-55
2022/11/21 07:45:17;;;;;;;4.47;2.80;;;;;;;18.31;43.66;100388.28;5007108;28;20048;-52
2022/11/21 07:47:43;;;;;;;2.85;2.60;;;;;;;18.33;43.74;100394.31;5025306;28;20090;-58
2022/11/21 07:50:10;;;;;;;3.20;2.80;;;;;;;18.37;43.86;100402.88;5023598;28;20029;-57
2022/11/21 07:52:35;;;;;;;3.88;3.30;;;;;;;18.37;43.65;100406.41;5011870;28;20181;-54
2022/11/21 07:55:03;;;;;;;4.03;2.80;;;;;;;18.41;43.69;100404.19;5022861;28;20025;-60
2022/11/21 07:57:30;;;;;;;3.20;2.90;;;;;;;18.33;43.79;100383.53;5025227;28;20057;-60
2022/11/21 07:59:55;;;;;;;4.18;2.33;;;;;;;18.45;43.59;100398.28;5019497;28;20097;-54
2022/11/21 08:02:22;;;;;;;4.03;2.40;;;;;;;18.46;43.36;100397.25;5012804;28;20026;-51
2022/11/21 08:04:48;;;;;;;3.28;2.75;;;;;;;18.47;43.48;100385.47;5020510;28;20030;-50
2022/11/21 08:07:14;;;;;;;3.83;2.55;;;;;;;18.49;43.77;100396.91;5010972;28;20782;-61
2022/11/21 08:09:39;;;;;;;3.60;2.45;;;;;;;18.51;43.17;100382.41;5008976;28;20050;-60
2022/11/21 08:12:05;;;;;;;4.78;2.90;;;;;;;18.52;43.54;100376.88;5025169;28;20029;-60
2022/11/21 08:14:32;;;;;;;3.78;2.40;;;;;;;18.53;43.15;100370.47;5024225;28;20033;-61
2022/11/21 08:16:57;;;;;;;3.78;2.70;;;;;;;18.54;43.31;100363.22;5024693;28;20041;-61
2022/11/21 08:19:23;;;;;;;4.43;2.55;;;;;;;18.55;42.93;100367.59;5025068;28;20044;-61
2022/11/21 08:21:48;;;;;;;5.30;2.75;;;;;;;18.48;43.19;100360.25;5024753;28;20117;-60
2022/11/21 08:24:16;;;;;;;4.03;2.55;;;;;;;18.53;42.92;100367.78;5024762;28;20060;-61
2022/11/21 08:26:41;;;;;;;3.50;3.00;;;;;;;18.56;42.76;100364.69;5024285;28;20057;-60
2022/11/21 08:29:06;;;;;;;2.90;2.50;;;;;;;18.59;42.88;100368.91;5023571;28;20041;-62
2022/11/21 08:31:31;;;;;;;3.03;2.72;;;;;;;18.17;42.85;100306.44;5017295;28;20029;-59
2022/11/21 08:33:57;;;;;;;2.78;2.30;;;;;;;18.59;42.82;100368.91;5017502;28;20026;-60
2022/11/21 08:36:23;;;;;;;2.85;2.58;;;;;;;18.57;43.06;100352.94;5021669;28;20034;-60
2022/11/21 08:38:48;;;;;;;3.42;2.65;;;;;;;18.52;43.03;100344.56;5014665;28;20030;-61
2022/11/21 08:43:58;;;;;;;2.90;2.60;;;;;;;18.55;43.14;100349.56;5015472;28;20096;-60
2022/11/21 08:46:26;;;;;;;2.78;2.20;;;;;;;18.51;43.00;100331.28;5016907;28;20113;-59
2022/11/21 08:48:53;;;;;;;3.00;2.47;;;;;;;18.47;42.98;100334.31;5015212;28;20045;-60
2022/11/21 08:51:19;;;;;;;3.08;2.70;;;;;;;18.49;42.88;100334.16;5013392;28;20113;-59
2022/11/21 08:53:44;;;;;;;3.35;2.20;;;;;;;18.54;42.96;100341.69;4995425;28;20061;-59
2022/11/21 08:56:09;;;;;;;3.20;2.42;;;;;;;18.53;43.21;100343.53;5014163;28;20078;-60
2022/11/21 08:58:35;;;;;;;2.80;2.30;;;;;;;18.52;43.19;100344.56;5002614;28;20030;-60
2022/11/21 09:01:00;;;;;;;2.47;2.28;;;;;;;18.52;43.19;100349.94;5014177;28;20026;-59
2022/11/21 09:03:25;;;;;;;4.70;2.17;;;;;;;18.22;42.99;100298.69;5014924;28;20033;-59
2022/11/21 09:05:50;;;;;;;3.22;2.33;;;;;;;18.49;43.12;100334.97;5011878;28;20065;-59
2022/11/21 09:08:15;;;;;;;2.17;1.98;;;;;;;18.44;42.92;100317.72;5013944;28;20030;-58
2022/11/21 09:10:41;;;;;;;2.42;2.10;;;;;;;18.50;42.98;100325.06;5014339;28;20053;-60
2022/11/21 09:13:06;;;;;;;3.08;2.50;;;;;;;18.50;43.33;100319.66;5015299;28;20028;-60
2022/11/21 09:18:15;;;;;;;3.08;2.75;;;;;;;18.48;43.46;100314.47;5014225;28;20081;-60
2022/11/21 09:20:42;;;;;;;3.33;2.38;;;;;;;18.46;43.29;100303.03;5013566;28;20026;-61
2022/11/21 09:23:09;;;;;;;3.38;2.55;;;;;;;18.48;43.05;100294.78;5012412;28;20428;-60
2022/11/21 09:25:34;;;;;;;2.30;2.10;;;;;;;18.46;43.42;100297.66;5014909;28;20673;-60
2022/11/21 09:28:04;;;;;;;2.95;2.13;;;;;;;18.46;43.49;100292.25;5000461;28;20022;-59
2022/11/21 09:30:29;;;;;;;2.78;2.05;;;;;;;18.44;43.65;100291.63;5014599;28;20037;-58
2022/11/21 09:33:02;;;;;;;2.35;2.00;;;;;;;18.34;43.29;100276.72;5015628;28;20025;-58
2022/11/21 09:35:28;;;;;;;2.40;2.20;;;;;;;18.42;43.66;100299.03;5020188;28;20114;-59
2022/11/21 09:37:53;;;;;;;2.17;1.90;;;;;;;18.40;43.68;100287.63;5023599;28;20026;-59
2022/11/21 09:40:18;;;;;;;2.53;2.33;;;;;;;18.32;43.79;100271.53;5020671;28;20026;-59
2022/11/21 09:42:58;;;;;;;4.10;2.33;;;;;;;18.42;43.86;100277.50;5005824;28;20064;-62
2022/11/21 09:45:30;;;;;;;2.15;1.95;;;;;;;18.45;43.98;100287.06;5000770;28;20030;-60
2022/11/21 09:47:55;;;;;;;3.08;2.20;;;;;;;18.45;43.73;100279.84;5023406;28;20026;-60
2022/11/21 09:50:30;;;;;;;2.03;1.83;;;;;;;18.44;43.79;100283.56;5023525;28;20021;-62
2022/11/21 09:53:12;;;;;;;2.67;2.20;;;;;;;18.43;43.95;100281.84;5004964;28;20049;-59
2022/11/21 09:55:43;;;;;;;2.67;2.47;;;;;;;18.42;44.01;100280.19;4988593;28;20076;-62
2022/11/21 09:58:15;;;;;;;2.55;2.22;;;;;;;18.42;43.90;100285.56;5005254;28;20033;-62
2022/11/21 10:00:40;;;;;;;5.78;2.53;;;;;;;18.42;44.13;100272.13;5005120;28;20029;-60
2022/11/21 10:03:10;;;;;;;4.32;2.28;;;;;;;18.36;44.13;100248.63;5021606;28;20033;-61
2022/11/21 10:05:46;;;;;;;2.85;2.28;;;;;;;18.43;44.12;100251.41;5004974;28;20038;-60
2022/11/21 10:08:31;;;;;;;3.70;2.25;;;;;;;18.45;44.04;100255.59;5004807;28;20026;-63
2022/11/21 10:11:21;;;;;;;3.67;2.22;;;;;;;18.45;44.23;100255.59;4996775;28;20026;-61
2022/11/21 10:14:00;;;;;;;7.40;2.40;;;;;;;18.45;43.99;100250.22;5012645;28;20033;-61
2022/11/21 10:16:29;;;;;;;;;;;;;;;18.47;44.13;100225.81;5005480;28;20037;-60
2022/11/21 10:19:10;;;;;;;3.88;2.35;;;;;;;18.48;43.67;100222.13;5001782;28;19917;-60
2022/11/21 10:22:06;;;;;;;2.38;2.00;;;;;;;18.46;43.85;100216.91;4999349;28;20030;-60
2022/11/21 10:24:43;;;;;;;2.40;1.83;;;;;;;18.47;43.73;100202.41;4985736;28;20038;-60
2022/11/21 10:27:51;;;;;;;2.80;2.45;;;;;;;18.48;43.63;100200.59;4996240;28;20041;-60
2022/11/21 10:30:20;;;;;;;2.00;1.80;;;;;;;18.49;43.71;100192.31;5017753;28;20030;-59
2022/11/21 10:32:47;;;;;;;;;;;;;;;18.49;43.56;100192.31;5022656;28;20026;-60
2022/11/21 10:35:19;;;;;;;2.97;2.17;;;;;;;18.50;43.74;100193.16;5005263;28;19935;-60
2022/11/21 10:37:59;;;;;;;8.32;2.17;;;;;;;18.54;44.05;100186.38;5022946;28;20026;-61
2022/11/21 10:40:28;;;;;;;7.03;2.30;;;;;;;18.56;44.76;100180.78;5022571;28;20072;-53
2022/11/21 10:45:15;;;;;;;3.00;2.40;;;;;;;18.54;46.40;100164.84;5022431;28;20034;-63
2022/11/21 10:45:51;;;;;;;7.45;2.45;;;;;;;18.69;48.09;100172.91;5022470;28;20409;-61
2022/11/21 10:48:16;;;;;;;5.05;2.45;;;;;;;18.76;48.59;100163.13;5022481;28;20037;-61
2022/11/21 10:51:13;;;;;;;4.00;2.00;;;;;;;18.79;48.52;100164.63;5022789;28;20022;-62
2022/11/21 10:56:25;;;;;;;3.60;2.47;;;;;;;18.79;48.38;100161.91;4988222;28;20033;-62
2022/11/21 10:58:56;;;;;;;8.77;3.28;;;;;;;18.81;48.74;100162.56;4985350;28;20030;-61
2022/11/21 11:01:26;;;;;;;4.65;2.50;;;;;;;18.78;48.72;100154.88;4993004;28;20026;-61
2022/11/21 11:04:09;;;;;;;5.80;2.00;;;;;;;18.78;49.00;100144.94;5022606;28;20187;-61
2022/11/21 11:06:36;;;;;;;8.43;2.80;;;;;;;18.78;48.89;100146.78;5018115;28;20040;-60
2022/11/21 11:09:01;;;;;;;5.00;2.35;;;;;;;18.77;48.68;100147.78;5003608;28;20038;-61
2022/11/21 11:11:27;;;;;;;4.18;2.30;;;;;;;18.76;48.56;100152.34;5002805;28;20102;-60
2022/11/21 11:14:04;;;;;;;6.75;2.30;;;;;;;18.75;48.41;100148.00;5011578;28;20026;-61
2022/11/21 11:16:31;;;;;;;4.57;2.53;;;;;;;18.74;47.80;100154.41;5002639;28;20052;-61
2022/11/21 11:19:22;;;;;;;3.30;2.28;;;;;;;18.74;47.83;100154.41;5020798;28;20033;-60
2022/11/21 11:21:47;;;;;;;5.25;2.38;;;;;;;18.74;47.69;100154.41;4991123;28;20050;-61
2022/11/21 11:24:12;;;;;;;5.90;2.10;;;;;;;18.73;47.48;100155.41;5004667;28;20057;-60
2022/11/21 11:26:47;;;;;;;4.57;2.15;;;;;;;18.70;47.39;100145.03;5003575;28;20061;-60
2022/11/21 11:29:14;;;;;;;6.93;2.33;;;;;;;18.69;47.43;100146.00;5020834;28;20022;-60
2022/11/21 11:31:41;;;;;;;4.35;2.30;;;;;;;18.69;47.42;100135.22;5019044;28;20081;-61
2022/11/21 11:34:11;;;;;;;6.50;2.67;;;;;;;18.68;47.03;100133.56;5002595;28;20034;-61
2022/11/21 11:36:39;;;;;;;3.42;2.05;;;;;;;18.68;47.18;100122.78;5002299;28;20027;-60
2022/11/21 11:39:17;;;;;;;3.07;2.30;;;;;;;18.68;46.78;100109.31;4984790;28;20025;-61
2022/11/21 11:47:53;;;;;;;2.63;2.17;;;;;;;18.76;46.49;100097.66;5009298;28;20034;-60
2022/11/21 11:50:23;;;;;;;3.80;2.53;;;;;;;18.74;46.67;100100.53;5002940;28;20019;-60